sensor_id;sensor_type;location;lat;lon;timestamp;pressure;altitude;pressure_sealevel;temperature;humidity
72118;BME280;59992;47.490;8.736;2022-08-11T00:02:26;96858.28;;;14.08;76.50
72118;BME280;59992;47.490;8.736;2022-08-11T00:05:18;96860.55;;;14.04;76.13
72118;BME280;59992;47.490;8.736;2022-08-11T00:08:09;96861.81;;;13.96;76.71
72118;BME280;59992;47.490;8.736;2022-08-11T00:11:01;96862.34;;;13.94;77.83
72118;BME280;59992;47.490;8.736;2022-08-11T00:13:49;96858.36;;;13.94;76.17
72118;BME280;59992;47.490;8.736;2022-08-11T00:16:39;96857.69;;;13.96;75.12
72118;BME280;59992;47.490;8.736;2022-08-11T00:19:31;96857.85;;;13.95;75.62
72118;BME280;59992;47.490;8.736;2022-08-11T00:22:21;96855.70;;;13.94;76.39
72118;BME280;59992;47.490;8.736;2022-08-11T00:25:12;96855.55;;;13.91;76.64
72118;BME280;59992;47.490;8.736;2022-08-11T00:28:02;96855.22;;;13.86;77.12
72118;BME280;59992;47.490;8.736;2022-08-11T00:30:51;96851.91;;;13.80;76.86
72118;BME280;59992;47.490;8.736;2022-08-11T00:33:42;96856.55;;;13.79;76.83
72118;BME280;59992;47.490;8.736;2022-08-11T00:36:41;96856.16;;;13.77;78.90
72118;BME280;59992;47.490;8.736;2022-08-11T00:39:33;96860.04;;;13.79;76.94
72118;BME280;59992;47.490;8.736;2022-08-11T00:42:28;96856.69;;;13.77;77.17
72118;BME280;59992;47.490;8.736;2022-08-11T00:45:25;96861.33;;;13.75;78.06
72118;BME280;59992;47.490;8.736;2022-08-11T00:48:27;96862.25;;;13.75;76.65
72118;BME280;59992;47.490;8.736;2022-08-11T00:51:23;96859.41;;;13.72;77.06
72118;BME280;59992;47.490;8.736;2022-08-11T00:54:35;96856.55;;;13.66;77.09
72118;BME280;59992;47.490;8.736;2022-08-11T01:01:07;96852.70;;;13.57;76.34
72118;BME280;59992;47.490;8.736;2022-08-11T01:04:19;96852.08;;;13.55;77.75
72118;BME280;59992;47.490;8.736;2022-08-11T01:07:30;96852.45;;;13.52;78.98
72118;BME280;59992;47.490;8.736;2022-08-11T01:10:42;96853.36;;;13.53;77.54
72118;BME280;59992;47.490;8.736;2022-08-11T01:21:08;96863.11;;;13.42;77.94
72118;BME280;59992;47.490;8.736;2022-08-11T01:24:31;96862.45;;;13.35;78.62
72118;BME280;59992;47.490;8.736;2022-08-11T01:28:10;96855.83;;;13.33;78.47
72118;BME280;59992;47.490;8.736;2022-08-11T01:35:16;96856.96;;;13.33;79.13
72118;BME280;59992;47.490;8.736;2022-08-11T01:38:30;96856.05;;;13.32;79.18
72118;BME280;59992;47.490;8.736;2022-08-11T01:41:47;96860.20;;;13.29;79.40
72118;BME280;59992;47.490;8.736;2022-08-11T01:45:10;96856.01;;;13.27;79.08
72118;BME280;59992;47.490;8.736;2022-08-11T01:48:07;96852.33;;;13.24;80.71
72118;BME280;59992;47.490;8.736;2022-08-11T01:51:11;96851.02;;;13.21;79.61
72118;BME280;59992;47.490;8.736;2022-08-11T01:54:06;96852.31;;;13.21;79.79
72118;BME280;59992;47.490;8.736;2022-08-11T01:57:07;96849.43;;;13.21;79.89
72118;BME280;59992;47.490;8.736;2022-08-11T02:00:05;96852.46;;;13.21;79.19
72118;BME280;59992;47.490;8.736;2022-08-11T02:03:00;96852.36;;;13.19;79.56
72118;BME280;59992;47.490;8.736;2022-08-11T02:06:03;96848.31;;;13.16;79.73
72118;BME280;59992;47.490;8.736;2022-08-11T02:09:17;96848.45;;;13.12;81.06
72118;BME280;59992;47.490;8.736;2022-08-11T02:12:14;96849.36;;;13.12;80.77
72118;BME280;59992;47.490;8.736;2022-08-11T02:15:10;96849.44;;;13.13;79.30
72118;BME280;59992;47.490;8.736;2022-08-11T02:18:10;96849.28;;;13.13;79.56
72118;BME280;59992;47.490;8.736;2022-08-11T02:21:06;96852.33;;;13.14;80.19
72118;BME280;59992;47.490;8.736;2022-08-11T02:24:22;96850.88;;;13.13;80.26
72118;BME280;59992;47.490;8.736;2022-08-11T02:27:18;96849.34;;;13.09;80.29
72118;BME280;59992;47.490;8.736;2022-08-11T02:30:11;96845.21;;;13.07;81.00
72118;BME280;59992;47.490;8.736;2022-08-11T02:33:12;96846.61;;;13.03;80.61
72118;BME280;59992;47.490;8.736;2022-08-11T02:36:17;96848.09;;;13.01;80.60
72118;BME280;59992;47.490;8.736;2022-08-11T02:39:11;96841.61;;;12.99;80.30
72118;BME280;59992;47.490;8.736;2022-08-11T02:42:15;96845.08;;;12.94;81.18
72118;BME280;59992;47.490;8.736;2022-08-11T02:45:26;96844.96;;;12.91;80.98
72118;BME280;59992;47.490;8.736;2022-08-11T02:48:30;96845.03;;;12.88;80.34
72118;BME280;59992;47.490;8.736;2022-08-11T02:51:50;96849.70;;;12.85;80.14
72118;BME280;59992;47.490;8.736;2022-08-11T02:54:48;96852.63;;;12.78;80.90
72118;BME280;59992;47.490;8.736;2022-08-11T02:57:46;96851.88;;;12.72;81.17
72118;BME280;59992;47.490;8.736;2022-08-11T03:00:46;96848.66;;;12.70;81.47
72118;BME280;59992;47.490;8.736;2022-08-11T03:03:39;96846.37;;;12.69;81.63
72118;BME280;59992;47.490;8.736;2022-08-11T03:06:36;96845.40;;;12.71;81.23
72118;BME280;59992;47.490;8.736;2022-08-11T03:09:39;96849.58;;;12.69;81.15
72118;BME280;59992;47.490;8.736;2022-08-11T03:12:35;96852.19;;;12.64;81.52
72118;BME280;59992;47.490;8.736;2022-08-11T03:15:51;96848.41;;;12.60;81.17
72118;BME280;59992;47.490;8.736;2022-08-11T03:19:23;96847.08;;;12.55;81.47
72118;BME280;59992;47.490;8.736;2022-08-11T03:22:25;96847.91;;;12.54;82.79
72118;BME280;59992;47.490;8.736;2022-08-11T03:25:26;96845.72;;;12.57;81.74
72118;BME280;59992;47.490;8.736;2022-08-11T03:28:26;96843.29;;;12.56;81.82
72118;BME280;59992;47.490;8.736;2022-08-11T03:31:21;96837.73;;;12.53;81.67
72118;BME280;59992;47.490;8.736;2022-08-11T03:34:16;96841.93;;;12.49;82.09
72118;BME280;59992;47.490;8.736;2022-08-11T03:37:14;96845.54;;;12.44;82.46
72118;BME280;59992;47.490;8.736;2022-08-11T03:40:34;96847.33;;;12.41;82.88
72118;BME280;59992;47.490;8.736;2022-08-11T03:43:53;96850.06;;;12.42;83.25
72118;BME280;59992;47.490;8.736;2022-08-11T03:47:07;96847.58;;;12.44;82.01
72118;BME280;59992;47.490;8.736;2022-08-11T03:50:15;96848.78;;;12.42;82.45
72118;BME280;59992;47.490;8.736;2022-08-11T03:53:17;96851.23;;;12.38;82.64
72118;BME280;59992;47.490;8.736;2022-08-11T03:56:49;96849.20;;;12.33;82.66
72118;BME280;59992;47.490;8.736;2022-08-11T04:00:09;96851.56;;;12.26;82.93
72118;BME280;59992;47.490;8.736;2022-08-11T04:10:24;96855.36;;;12.18;83.74
72118;BME280;59992;47.490;8.736;2022-08-11T04:13:54;96858.97;;;12.22;83.36
72118;BME280;59992;47.490;8.736;2022-08-11T04:17:43;96857.22;;;12.23;83.16
72118;BME280;59992;47.490;8.736;2022-08-11T04:20:54;96861.92;;;12.21;83.28
72118;BME280;59992;47.490;8.736;2022-08-11T04:24:08;96859.30;;;12.20;83.60
72118;BME280;59992;47.490;8.736;2022-08-11T04:30:49;96853.94;;;12.20;83.68
72118;BME280;59992;47.490;8.736;2022-08-11T04:34:02;96854.56;;;12.23;83.77
72118;BME280;59992;47.490;8.736;2022-08-11T04:40:53;96856.70;;;12.29;83.29
72118;BME280;59992;47.490;8.736;2022-08-11T04:47:47;96865.72;;;12.35;82.77
72118;BME280;59992;47.490;8.736;2022-08-11T04:51:13;96867.73;;;12.39;82.62
72118;BME280;59992;47.490;8.736;2022-08-11T04:54:44;96871.90;;;12.45;81.44
72118;BME280;59992;47.490;8.736;2022-08-11T04:58:11;96870.03;;;12.55;82.07
72118;BME280;59992;47.490;8.736;2022-08-11T05:01:30;96875.75;;;12.64;81.82
72118;BME280;59992;47.490;8.736;2022-08-11T05:04:44;96879.33;;;12.75;81.83
72118;BME280;59992;47.490;8.736;2022-08-11T05:08:34;96870.54;;;12.84;81.06
72118;BME280;59992;47.490;8.736;2022-08-11T05:11:42;96876.35;;;12.89;80.74
72118;BME280;59992;47.490;8.736;2022-08-11T05:14:36;96877.95;;;12.97;81.11
72118;BME280;59992;47.490;8.736;2022-08-11T05:17:48;96875.95;;;13.11;80.86
72118;BME280;59992;47.490;8.736;2022-08-11T05:21:05;96873.59;;;13.28;80.18
72118;BME280;59992;47.490;8.736;2022-08-11T05:24:18;96873.80;;;13.46;79.81
72118;BME280;59992;47.490;8.736;2022-08-11T05:27:32;96870.79;;;13.67;79.90
72118;BME280;59992;47.490;8.736;2022-08-11T05:30:42;96871.67;;;13.88;79.30
72118;BME280;59992;47.490;8.736;2022-08-11T05:33:51;96877.91;;;14.40;75.99
72118;BME280;59992;47.490;8.736;2022-08-11T05:37:06;96875.05;;;15.49;72.01
72118;BME280;59992;47.490;8.736;2022-08-11T05:39:59;96878.83;;;16.60;69.06
72118;BME280;59992;47.490;8.736;2022-08-11T05:43:12;96881.52;;;17.73;63.25
72118;BME280;59992;47.490;8.736;2022-08-11T05:46:21;96883.92;;;18.69;59.60
72118;BME280;59992;47.490;8.736;2022-08-11T05:49:30;96885.71;;;19.55;57.72
72118;BME280;59992;47.490;8.736;2022-08-11T05:52:37;96886.10;;;20.38;54.16
72118;BME280;59992;47.490;8.736;2022-08-11T05:55:45;96889.48;;;21.16;52.66
72118;BME280;59992;47.490;8.736;2022-08-11T05:58:53;96895.05;;;21.91;49.12
72118;BME280;59992;47.490;8.736;2022-08-11T06:01:43;96899.35;;;22.59;50.29
72118;BME280;59992;47.490;8.736;2022-08-11T06:04:33;96898.90;;;23.20;45.86
72118;BME280;59992;47.490;8.736;2022-08-11T06:07:26;96904.23;;;23.64;45.07
72118;BME280;59992;47.490;8.736;2022-08-11T06:10:27;96898.26;;;24.12;43.65
72118;BME280;59992;47.490;8.736;2022-08-11T06:13:17;96901.92;;;24.76;43.90
72118;BME280;59992;47.490;8.736;2022-08-11T06:16:06;96901.54;;;25.47;45.97
72118;BME280;59992;47.490;8.736;2022-08-11T06:18:56;96900.34;;;25.80;39.27
72118;BME280;59992;47.490;8.736;2022-08-11T06:21:47;96899.89;;;25.87;41.39
72118;BME280;59992;47.490;8.736;2022-08-11T06:24:38;96904.11;;;26.09;39.50
72118;BME280;59992;47.490;8.736;2022-08-11T06:27:30;96903.02;;;26.20;38.20
72118;BME280;59992;47.490;8.736;2022-08-11T06:30:33;96903.14;;;26.59;39.55
72118;BME280;59992;47.490;8.736;2022-08-11T06:33:32;96901.93;;;27.09;36.64
72118;BME280;59992;47.490;8.736;2022-08-11T06:36:27;96901.29;;;27.06;36.92
72118;BME280;59992;47.490;8.736;2022-08-11T06:39:22;96903.14;;;27.31;35.93
72118;BME280;59992;47.490;8.736;2022-08-11T06:42:31;96901.45;;;27.46;36.09
72118;BME280;59992;47.490;8.736;2022-08-11T06:45:29;96901.20;;;27.96;37.00
72118;BME280;59992;47.490;8.736;2022-08-11T06:48:22;96897.32;;;28.23;33.29
72118;BME280;59992;47.490;8.736;2022-08-11T06:51:11;96899.96;;;28.13;33.62
72118;BME280;59992;47.490;8.736;2022-08-11T06:54:01;96901.95;;;28.17;34.28
72118;BME280;59992;47.490;8.736;2022-08-11T06:56:50;96899.16;;;28.54;34.22
72118;BME280;59992;47.490;8.736;2022-08-11T06:59:59;96899.78;;;28.61;34.59
72118;BME280;59992;47.490;8.736;2022-08-11T07:03:17;96903.13;;;29.08;34.99
72118;BME280;59992;47.490;8.736;2022-08-11T07:06:17;96902.33;;;29.40;31.18
72118;BME280;59992;47.490;8.736;2022-08-11T07:13:02;96895.56;;;29.55;31.40
72118;BME280;59992;47.490;8.736;2022-08-11T07:16:10;96895.29;;;29.61;31.30
72118;BME280;59992;47.490;8.736;2022-08-11T07:19:05;96898.09;;;29.72;32.37
72118;BME280;59992;47.490;8.736;2022-08-11T07:22:13;96898.48;;;29.76;31.17
72118;BME280;59992;47.490;8.736;2022-08-11T07:25:21;96896.95;;;29.30;31.06
72118;BME280;59992;47.490;8.736;2022-08-11T07:28:31;96896.98;;;29.14;31.77
72118;BME280;59992;47.490;8.736;2022-08-11T07:31:44;96892.70;;;29.05;32.24
72118;BME280;59992;47.490;8.736;2022-08-11T07:34:35;96896.55;;;29.19;32.42
72118;BME280;59992;47.490;8.736;2022-08-11T07:37:27;96892.92;;;29.14;32.20
72118;BME280;59992;47.490;8.736;2022-08-11T07:40:21;96894.87;;;29.19;33.38
72118;BME280;59992;47.490;8.736;2022-08-11T07:43:12;96895.11;;;29.32;32.11
72118;BME280;59992;47.490;8.736;2022-08-11T07:46:03;96894.81;;;29.10;32.83
72118;BME280;59992;47.490;8.736;2022-08-11T07:49:10;96896.33;;;29.05;32.40
72118;BME280;59992;47.490;8.736;2022-08-11T07:52:17;96898.41;;;28.95;32.05
72118;BME280;59992;47.490;8.736;2022-08-11T07:55:21;96900.98;;;29.07;32.62
72118;BME280;59992;47.490;8.736;2022-08-11T07:58:13;96901.90;;;29.02;32.57
72118;BME280;59992;47.490;8.736;2022-08-11T08:01:22;96897.13;;;28.40;33.42
72118;BME280;59992;47.490;8.736;2022-08-11T08:04:29;96893.23;;;28.43;33.27
72118;BME280;59992;47.490;8.736;2022-08-11T08:07:38;96894.00;;;28.80;32.34
72118;BME280;59992;47.490;8.736;2022-08-11T08:10:44;96895.29;;;29.02;32.53
72118;BME280;59992;47.490;8.736;2022-08-11T08:13:52;96892.86;;;29.11;32.27
72118;BME280;59992;47.490;8.736;2022-08-11T08:16:59;96892.13;;;29.18;32.10
72118;BME280;59992;47.490;8.736;2022-08-11T08:20:11;96887.38;;;28.73;32.56
72118;BME280;59992;47.490;8.736;2022-08-11T08:23:01;96893.27;;;28.81;32.93
72118;BME280;59992;47.490;8.736;2022-08-11T08:25:51;96892.04;;;28.36;33.02
72118;BME280;59992;47.490;8.736;2022-08-11T08:28:40;96891.48;;;28.56;33.74
72118;BME280;59992;47.490;8.736;2022-08-11T08:31:33;96886.69;;;28.33;34.21
72118;BME280;59992;47.490;8.736;2022-08-11T08:34:23;96886.35;;;28.45;33.34
72118;BME280;59992;47.490;8.736;2022-08-11T08:37:12;96890.05;;;28.69;33.34
72118;BME280;59992;47.490;8.736;2022-08-11T08:40:04;96889.88;;;28.40;33.59
72118;BME280;59992;47.490;8.736;2022-08-11T08:42:57;96891.25;;;28.70;33.59
72118;BME280;59992;47.490;8.736;2022-08-11T08:45:46;96892.48;;;28.75;33.09
72118;BME280;59992;47.490;8.736;2022-08-11T08:48:35;96895.09;;;28.71;32.84
72118;BME280;59992;47.490;8.736;2022-08-11T08:51:25;96889.95;;;28.62;33.82
72118;BME280;59992;47.490;8.736;2022-08-11T08:54:29;96886.85;;;28.73;33.60
72118;BME280;59992;47.490;8.736;2022-08-11T08:57:22;96887.23;;;28.75;33.41
72118;BME280;59992;47.490;8.736;2022-08-11T09:00:14;96894.70;;;28.81;32.98
72118;BME280;59992;47.490;8.736;2022-08-11T09:03:03;96893.88;;;28.91;32.47
72118;BME280;59992;47.490;8.736;2022-08-11T09:05:54;96891.49;;;28.79;32.73
72118;BME280;59992;47.490;8.736;2022-08-11T09:08:44;96889.30;;;28.87;32.85
72118;BME280;59992;47.490;8.736;2022-08-11T09:11:33;96887.55;;;28.77;33.00
72118;BME280;59992;47.490;8.736;2022-08-11T09:14:40;96886.77;;;28.87;32.83
72118;BME280;59992;47.490;8.736;2022-08-11T09:17:50;96882.73;;;28.80;33.14
72118;BME280;59992;47.490;8.736;2022-08-11T09:20:39;96884.41;;;28.70;33.12
72118;BME280;59992;47.490;8.736;2022-08-11T09:23:28;96884.17;;;28.60;32.46
72118;BME280;59992;47.490;8.736;2022-08-11T09:26:36;96882.13;;;28.34;33.51
72118;BME280;59992;47.490;8.736;2022-08-11T09:29:44;96882.28;;;28.47;32.98
72118;BME280;59992;47.490;8.736;2022-08-11T09:32:34;96881.73;;;28.38;33.38
72118;BME280;59992;47.490;8.736;2022-08-11T09:35:24;96882.80;;;28.54;33.49
72118;BME280;59992;47.490;8.736;2022-08-11T09:38:15;96880.80;;;28.37;32.91
72118;BME280;59992;47.490;8.736;2022-08-11T09:41:24;96876.02;;;28.27;33.83
72118;BME280;59992;47.490;8.736;2022-08-11T09:44:13;96874.90;;;28.17;33.98
72118;BME280;59992;47.490;8.736;2022-08-11T09:47:23;96878.94;;;27.93;34.44
72118;BME280;59992;47.490;8.736;2022-08-11T09:50:15;96877.98;;;27.70;34.24
72118;BME280;59992;47.490;8.736;2022-08-11T09:53:05;96873.21;;;27.15;35.95
72118;BME280;59992;47.490;8.736;2022-08-11T09:55:54;96869.52;;;26.98;35.60
72118;BME280;59992;47.490;8.736;2022-08-11T09:58:48;96867.95;;;26.70;37.48
72118;BME280;59992;47.490;8.736;2022-08-11T10:01:40;96869.27;;;26.59;36.14
72118;BME280;59992;47.490;8.736;2022-08-11T10:04:37;96865.65;;;26.24;36.95
72118;BME280;59992;47.490;8.736;2022-08-11T10:07:27;96863.08;;;26.10;37.06
72118;BME280;59992;47.490;8.736;2022-08-11T10:10:16;96855.27;;;26.00;37.29
72118;BME280;59992;47.490;8.736;2022-08-11T10:13:12;96854.85;;;25.89;37.81
72118;BME280;59992;47.490;8.736;2022-08-11T10:16:07;96852.14;;;25.68;38.68
72118;BME280;59992;47.490;8.736;2022-08-11T10:19:00;96860.91;;;25.64;38.45
72118;BME280;59992;47.490;8.736;2022-08-11T10:21:51;96858.39;;;25.38;39.18
72118;BME280;59992;47.490;8.736;2022-08-11T10:24:56;96854.74;;;25.38;39.58
72118;BME280;59992;47.490;8.736;2022-08-11T10:28:06;96853.98;;;25.35;39.19
72118;BME280;59992;47.490;8.736;2022-08-11T10:30:55;96851.43;;;25.32;39.79
72118;BME280;59992;47.490;8.736;2022-08-11T10:34:02;96853.21;;;25.32;40.17
72118;BME280;59992;47.490;8.736;2022-08-11T10:36:53;96853.63;;;25.33;39.53
72118;BME280;59992;47.490;8.736;2022-08-11T10:39:42;96852.02;;;25.23;40.59
72118;BME280;59992;47.490;8.736;2022-08-11T10:42:33;96845.09;;;25.18;40.91
72118;BME280;59992;47.490;8.736;2022-08-11T10:45:42;96839.98;;;25.14;40.82
72118;BME280;59992;47.490;8.736;2022-08-11T10:48:50;96847.60;;;25.08;40.85
72118;BME280;59992;47.490;8.736;2022-08-11T10:51:39;96845.84;;;25.01;41.01
72118;BME280;59992;47.490;8.736;2022-08-11T10:54:45;96846.83;;;24.90;41.29
72118;BME280;59992;47.490;8.736;2022-08-11T10:57:53;96846.79;;;24.83;41.12
72118;BME280;59992;47.490;8.736;2022-08-11T11:01:01;96845.36;;;24.84;41.58
72118;BME280;59992;47.490;8.736;2022-08-11T11:03:54;96844.23;;;24.83;41.65
72118;BME280;59992;47.490;8.736;2022-08-11T11:06:54;96836.52;;;24.78;41.67
72118;BME280;59992;47.490;8.736;2022-08-11T11:09:47;96838.33;;;24.71;42.28
72118;BME280;59992;47.490;8.736;2022-08-11T11:12:40;96843.36;;;24.71;41.93
72118;BME280;59992;47.490;8.736;2022-08-11T11:15:49;96843.77;;;24.70;41.83
72118;BME280;59992;47.490;8.736;2022-08-11T11:18:57;96843.95;;;24.66;42.36
72118;BME280;59992;47.490;8.736;2022-08-11T11:21:48;96843.58;;;24.61;42.43
72118;BME280;59992;47.490;8.736;2022-08-11T11:24:44;96839.99;;;24.62;42.06
72118;BME280;59992;47.490;8.736;2022-08-11T11:27:49;96844.68;;;24.67;42.29
72118;BME280;59992;47.490;8.736;2022-08-11T11:30:50;96836.61;;;24.71;41.94
72118;BME280;59992;47.490;8.736;2022-08-11T11:34:14;96840.23;;;24.74;41.81
72118;BME280;59992;47.490;8.736;2022-08-11T11:37:07;96830.31;;;24.80;42.19
72118;BME280;59992;47.490;8.736;2022-08-11T11:39:59;96828.23;;;24.84;42.12
72118;BME280;59992;47.490;8.736;2022-08-11T11:42:51;96824.00;;;24.89;41.91
72118;BME280;59992;47.490;8.736;2022-08-11T11:45:42;96818.96;;;24.93;41.80
72118;BME280;59992;47.490;8.736;2022-08-11T11:48:33;96819.71;;;25.02;41.49
72118;BME280;59992;47.490;8.736;2022-08-11T11:51:25;96819.60;;;25.10;41.52
72118;BME280;59992;47.490;8.736;2022-08-11T11:54:15;96819.48;;;25.15;40.66
72118;BME280;59992;47.490;8.736;2022-08-11T11:57:04;96814.55;;;25.18;40.80
72118;BME280;59992;47.490;8.736;2022-08-11T12:00:10;96814.78;;;25.24;40.76
72118;BME280;59992;47.490;8.736;2022-08-11T12:03:26;96802.27;;;25.28;40.43
72118;BME280;59992;47.490;8.736;2022-08-11T12:06:16;96807.12;;;25.27;40.36
72118;BME280;59992;47.490;8.736;2022-08-11T12:09:05;96800.70;;;25.27;41.20
72118;BME280;59992;47.490;8.736;2022-08-11T12:11:54;96797.40;;;25.32;40.02
72118;BME280;59992;47.490;8.736;2022-08-11T12:15:02;96798.96;;;25.35;40.42
72118;BME280;59992;47.490;8.736;2022-08-11T12:17:51;96793.23;;;25.38;40.16
72118;BME280;59992;47.490;8.736;2022-08-11T12:20:40;96793.94;;;25.38;40.24
72118;BME280;59992;47.490;8.736;2022-08-11T12:23:29;96788.63;;;25.39;40.26
72118;BME280;59992;47.490;8.736;2022-08-11T12:26:37;96781.34;;;25.43;40.82
72118;BME280;59992;47.490;8.736;2022-08-11T12:29:43;96771.06;;;25.53;40.07
72118;BME280;59992;47.490;8.736;2022-08-11T12:32:37;96767.45;;;25.58;39.83
72118;BME280;59992;47.490;8.736;2022-08-11T12:35:26;96766.86;;;25.62;39.44
72118;BME280;59992;47.490;8.736;2022-08-11T12:38:17;96760.86;;;25.63;39.62
72118;BME280;59992;47.490;8.736;2022-08-11T12:41:07;96758.60;;;25.62;40.15
72118;BME280;59992;47.490;8.736;2022-08-11T12:44:14;96758.86;;;25.71;40.05
72118;BME280;59992;47.490;8.736;2022-08-11T12:47:24;96755.61;;;25.78;40.16
72118;BME280;59992;47.490;8.736;2022-08-11T12:50:33;96750.52;;;25.83;39.98
72118;BME280;59992;47.490;8.736;2022-08-11T12:53:45;96743.22;;;25.88;40.25
72118;BME280;59992;47.490;8.736;2022-08-11T12:56:41;96748.20;;;25.91;39.79
72118;BME280;59992;47.490;8.736;2022-08-11T12:59:50;96740.98;;;25.95;39.67
72118;BME280;59992;47.490;8.736;2022-08-11T13:02:58;96736.92;;;25.97;39.89
72118;BME280;59992;47.490;8.736;2022-08-11T13:06:06;96736.34;;;26.03;39.90
72118;BME280;59992;47.490;8.736;2022-08-11T13:08:56;96733.31;;;26.12;39.43
72118;BME280;59992;47.490;8.736;2022-08-11T13:11:46;96730.71;;;26.15;39.55
72118;BME280;59992;47.490;8.736;2022-08-11T13:14:54;96726.83;;;26.21;39.28
72118;BME280;59992;47.490;8.736;2022-08-11T13:17:44;96725.23;;;26.25;38.88
72118;BME280;59992;47.490;8.736;2022-08-11T13:20:34;96724.30;;;26.27;39.28
72118;BME280;59992;47.490;8.736;2022-08-11T13:23:24;96720.81;;;26.30;39.18
72118;BME280;59992;47.490;8.736;2022-08-11T13:26:14;96717.59;;;26.33;38.99
72118;BME280;59992;47.490;8.736;2022-08-11T13:29:03;96719.23;;;26.34;38.72
72118;BME280;59992;47.490;8.736;2022-08-11T13:31:54;96715.66;;;26.34;38.90
72118;BME280;59992;47.490;8.736;2022-08-11T13:34:46;96707.29;;;26.35;38.65
72118;BME280;59992;47.490;8.736;2022-08-11T13:37:35;96707.08;;;26.35;38.84
72118;BME280;59992;47.490;8.736;2022-08-11T13:40:25;96705.63;;;26.38;38.98
72118;BME280;59992;47.490;8.736;2022-08-11T13:43:14;96703.36;;;26.41;39.01
72118;BME280;59992;47.490;8.736;2022-08-11T13:46:04;96699.98;;;26.44;38.48
72118;BME280;59992;47.490;8.736;2022-08-11T13:49:14;96701.16;;;26.47;38.52
72118;BME280;59992;47.490;8.736;2022-08-11T13:52:05;96703.60;;;26.49;38.56
72118;BME280;59992;47.490;8.736;2022-08-11T13:55:00;96701.60;;;26.51;38.17
72118;BME280;59992;47.490;8.736;2022-08-11T13:57:51;96701.02;;;26.52;38.37
72118;BME280;59992;47.490;8.736;2022-08-11T14:00:42;96695.62;;;26.55;38.53
72118;BME280;59992;47.490;8.736;2022-08-11T14:03:32;96694.70;;;26.56;38.45
72118;BME280;59992;47.490;8.736;2022-08-11T14:06:22;96688.27;;;26.60;38.50
72118;BME280;59992;47.490;8.736;2022-08-11T14:09:15;96682.40;;;26.63;38.17
72118;BME280;59992;47.490;8.736;2022-08-11T14:12:16;96681.12;;;26.59;37.59
72118;BME280;59992;47.490;8.736;2022-08-11T14:15:30;96678.23;;;26.58;37.87
72118;BME280;59992;47.490;8.736;2022-08-11T14:18:22;96674.29;;;26.59;37.31
72118;BME280;59992;47.490;8.736;2022-08-11T14:21:15;96669.08;;;26.58;37.89
72118;BME280;59992;47.490;8.736;2022-08-11T14:24:23;96669.58;;;26.60;37.94
72118;BME280;59992;47.490;8.736;2022-08-11T14:27:14;96676.27;;;26.66;37.03
72118;BME280;59992;47.490;8.736;2022-08-11T14:30:05;96671.42;;;26.68;36.85
72118;BME280;59992;47.490;8.736;2022-08-11T14:33:15;96665.30;;;26.70;37.06
72118;BME280;59992;47.490;8.736;2022-08-11T14:36:04;96664.73;;;26.75;36.69
72118;BME280;59992;47.490;8.736;2022-08-11T14:38:56;96661.82;;;26.81;36.74
72118;BME280;59992;47.490;8.736;2022-08-11T14:41:47;96658.42;;;26.82;36.45
72118;BME280;59992;47.490;8.736;2022-08-11T14:44:56;96655.52;;;26.83;37.50
72118;BME280;59992;47.490;8.736;2022-08-11T14:48:09;96652.84;;;26.88;37.54
72118;BME280;59992;47.490;8.736;2022-08-11T14:50:58;96653.73;;;26.90;36.81
72118;BME280;59992;47.490;8.736;2022-08-11T14:53:47;96653.54;;;26.93;36.34
72118;BME280;59992;47.490;8.736;2022-08-11T14:57:01;96650.70;;;26.95;36.28
72118;BME280;59992;47.490;8.736;2022-08-11T14:59:50;96649.33;;;26.95;35.93
72118;BME280;59992;47.490;8.736;2022-08-11T15:02:39;96648.68;;;26.95;36.29
72118;BME280;59992;47.490;8.736;2022-08-11T15:05:49;96650.13;;;26.96;36.19
72118;BME280;59992;47.490;8.736;2022-08-11T15:08:38;96649.39;;;26.96;36.17
72118;BME280;59992;47.490;8.736;2022-08-11T15:11:43;96646.52;;;26.95;35.76
72118;BME280;59992;47.490;8.736;2022-08-11T15:15:04;96644.83;;;26.93;35.64
72118;BME280;59992;47.490;8.736;2022-08-11T15:18:13;96647.05;;;26.90;36.02
72118;BME280;59992;47.490;8.736;2022-08-11T15:21:02;96643.96;;;26.89;35.45
72118;BME280;59992;47.490;8.736;2022-08-11T15:24:09;96641.42;;;26.85;35.89
72118;BME280;59992;47.490;8.736;2022-08-11T15:27:11;96634.05;;;26.88;36.54
72118;BME280;59992;47.490;8.736;2022-08-11T15:30:19;96639.96;;;26.91;36.11
72118;BME280;59992;47.490;8.736;2022-08-11T15:33:28;96641.40;;;26.94;35.64
72118;BME280;59992;47.490;8.736;2022-08-11T15:36:36;96636.05;;;26.94;35.90
72118;BME280;59992;47.490;8.736;2022-08-11T15:39:48;96632.95;;;26.92;36.28
72118;BME280;59992;47.490;8.736;2022-08-11T15:42:59;96634.43;;;26.92;36.39
72118;BME280;59992;47.490;8.736;2022-08-11T15:46:10;96625.11;;;26.91;36.27
72118;BME280;59992;47.490;8.736;2022-08-11T15:49:04;96620.83;;;26.89;36.55
72118;BME280;59992;47.490;8.736;2022-08-11T15:51:59;96621.98;;;26.90;36.64
72118;BME280;59992;47.490;8.736;2022-08-11T15:54:51;96622.86;;;26.92;36.63
72118;BME280;59992;47.490;8.736;2022-08-11T15:57:40;96621.47;;;26.95;36.43
72118;BME280;59992;47.490;8.736;2022-08-11T16:00:49;96616.48;;;26.92;36.28
72118;BME280;59992;47.490;8.736;2022-08-11T16:04:00;96614.48;;;26.92;36.47
72118;BME280;59992;47.490;8.736;2022-08-11T16:07:04;96612.77;;;26.93;36.64
72118;BME280;59992;47.490;8.736;2022-08-11T16:09:56;96612.23;;;26.96;36.58
72118;BME280;59992;47.490;8.736;2022-08-11T16:12:50;96614.08;;;26.97;36.44
72118;BME280;59992;47.490;8.736;2022-08-11T16:16:01;96609.28;;;26.96;36.72
72118;BME280;59992;47.490;8.736;2022-08-11T16:19:05;96608.14;;;26.94;37.02
72118;BME280;59992;47.490;8.736;2022-08-11T16:21:57;96609.21;;;26.93;36.78
72118;BME280;59992;47.490;8.736;2022-08-11T16:24:46;96607.08;;;26.92;36.45
72118;BME280;59992;47.490;8.736;2022-08-11T16:27:39;96601.92;;;26.90;36.34
72118;BME280;59992;47.490;8.736;2022-08-11T16:30:29;96593.20;;;26.86;36.56
72118;BME280;59992;47.490;8.736;2022-08-11T16:33:19;96590.16;;;26.79;35.64